createdAt,value
2023-05-19T00:01:28.381Z,57.00098
2023-05-19T00:06:31.662Z,57.30566
2023-05-19T00:11:28.160Z,57.21387
2023-05-19T00:16:28.609Z,56.91309
2023-05-19T00:21:30.494Z,56.87988
2023-05-19T00:26:27.533Z,57.37598
2023-05-19T00:31:27.839Z,57.07129
2023-05-19T00:36:27.599Z,57.47852
2023-05-19T00:41:33.880Z,57.2832
2023-05-19T00:46:27.349Z,57.26758
2023-05-19T00:51:29.971Z,57.27246
2023-05-19T00:56:27.485Z,57.16992
2023-05-19T01:01:27.921Z,57.41016
2023-05-19T01:06:27.890Z,57.55957
2023-05-19T01:11:27.708Z,57.36621
2023-05-19T01:16:39.613Z,57.98633
2023-05-19T01:21:44.516Z,57.45898
2023-05-19T01:26:38.731Z,57.4082
2023-05-19T01:31:29.214Z,57.3916
2023-05-19T01:36:27.619Z,57.41699
2023-05-19T01:41:29.547Z,57.39941
2023-05-19T01:46:27.866Z,57.15918
2023-05-19T01:51:27.731Z,57.23242
2023-05-19T01:56:30.965Z,57.00684
2023-05-19T02:01:35.240Z,57.08105
2023-05-19T02:06:32.231Z,57.04297
2023-05-19T02:11:31.479Z,56.80664
2023-05-19T02:16:31.384Z,56.80371
2023-05-19T02:21:31.641Z,57.05957
2023-05-19T02:26:27.591Z,56.64844
2023-05-19T02:31:28.944Z,56.95801
2023-05-19T02:36:30.992Z,56.77148
2023-05-19T02:41:27.675Z,56.62012
2023-05-19T02:46:27.558Z,56.81934
2023-05-19T02:51:29.966Z,56.91797
2023-05-19T02:56:28.218Z,57.01367
2023-05-19T03:01:32.593Z,57.1416
2023-05-19T03:06:27.709Z,57.40039
2023-05-19T03:11:28.765Z,57.08301
2023-05-19T03:16:28.124Z,57.21289
2023-05-19T03:21:27.594Z,57.32324
2023-05-19T03:26:31.952Z,57.3877
2023-05-19T03:31:27.389Z,57.28125
2023-05-19T03:36:32.465Z,57.31543
2023-05-19T03:41:29.547Z,57.38379
2023-05-19T03:46:27.432Z,57.38574
2023-05-19T03:51:30.068Z,57.32715
2023-05-19T03:56:27.800Z,57.36914
2023-05-19T04:01:27.386Z,57.48047
2023-05-19T04:06:27.548Z,57.28223
2023-05-19T04:11:27.345Z,57.45605
2023-05-19T04:16:27.686Z,57.30078
2023-05-19T04:21:27.531Z,56.96973
2023-05-19T04:26:31.054Z,57.00488
2023-05-19T04:31:53.032Z,57.0498
2023-05-19T04:36:27.637Z,56.76172
2023-05-19T04:41:33.703Z,56.85352
2023-05-19T04:46:30.027Z,56.73145
2023-05-19T04:51:29.740Z,56.49316
2023-05-19T04:56:28.852Z,56.59961
2023-05-19T05:01:31.452Z,56.42676
2023-05-19T05:06:29.235Z,56.41211
2023-05-19T05:11:27.908Z,56.20313
2023-05-19T05:16:27.788Z,56.02637
2023-05-19T05:21:31.785Z,56.10938
2023-05-19T05:26:30.293Z,56.67578
2023-05-19T05:31:28.760Z,57.54688
2023-05-19T05:36:27.390Z,55.07422
2023-05-19T05:41:27.414Z,53.92188
2023-05-19T05:46:27.667Z,53.99902
2023-05-19T05:51:29.365Z,53.25684
2023-05-19T05:56:27.952Z,52.44629
2023-05-19T06:01:28.332Z,52.48828
2023-05-19T06:06:27.949Z,52.05176
2023-05-19T06:11:27.379Z,51.08398
2023-05-19T06:16:31.087Z,50.7998
2023-05-19T06:21:27.297Z,50.25781
2023-05-19T06:26:27.409Z,50.30859
2023-05-19T06:31:27.352Z,50.02246
2023-05-19T06:36:27.268Z,49.8877
2023-05-19T06:41:27.378Z,49.64551
2023-05-19T06:46:27.315Z,49.0293
2023-05-19T06:51:27.362Z,48.71582
2023-05-19T06:56:27.350Z,48.31836
2023-05-19T07:01:27.635Z,48.40234
2023-05-19T07:06:27.485Z,48.58105
2023-05-19T07:11:27.345Z,49.13574
2023-05-19T07:16:28.529Z,49.2793
2023-05-19T07:21:27.357Z,49.6416
2023-05-19T07:26:28.192Z,49.47949
2023-05-19T07:31:27.360Z,49.31348
2023-05-19T07:36:27.487Z,49.74023
2023-05-19T07:41:27.249Z,49.54102
2023-05-19T07:46:27.523Z,49.04102
2023-05-19T07:51:27.291Z,49.24414
2023-05-19T07:56:27.476Z,48.95801
2023-05-19T08:01:28.270Z,49.00879
2023-05-19T08:06:28.621Z,48.95898
2023-05-19T08:11:29.410Z,48.78711
2023-05-19T08:16:27.284Z,48.49902
2023-05-19T08:21:27.434Z,47.83887
2023-05-19T08:26:27.308Z,47.7666
2023-05-19T08:31:27.320Z,47.29395
2023-05-19T08:36:27.812Z,46.99707
2023-05-19T08:41:27.533Z,46.80859
2023-05-19T08:46:29.012Z,46.41992
2023-05-19T08:51:34.970Z,46.25781
2023-05-19T08:56:28.627Z,45.99121
2023-05-19T09:01:28.941Z,46.04199
2023-05-19T09:06:27.436Z,45.68164
2023-05-19T09:11:28.494Z,45.29492
2023-05-19T09:16:28.622Z,45.03125
2023-05-19T09:21:42.118Z,44.4082
2023-05-19T09:26:28.006Z,43.6377
2023-05-19T09:31:28.277Z,43.73438
2023-05-19T09:36:32.971Z,43.25293
2023-05-19T09:41:31.273Z,42.62305
2023-05-19T09:51:35.548Z,42.19531
2023-05-19T09:56:29.284Z,41.53125
2023-05-19T10:01:27.576Z,41.28711
2023-05-19T10:06:27.687Z,41.25488
2023-05-19T10:11:27.951Z,40.39648
2023-05-19T10:16:30.111Z,40.33496
2023-05-19T10:21:29.349Z,40.46484
2023-05-19T10:26:27.809Z,39.9248
2023-05-19T10:31:27.379Z,39.7793
2023-05-19T10:36:37.941Z,40.55371
2023-05-19T10:41:31.495Z,40.20117
2023-05-19T10:46:28.494Z,39.81738
2023-05-19T10:51:32.317Z,39.7998
2023-05-19T10:56:36.982Z,38.8291
2023-05-19T11:01:34.070Z,38.74414
2023-05-19T11:06:29.029Z,38.78711
2023-05-19T11:11:27.443Z,38.46973
2023-05-19T11:16:30.541Z,38.32129
2023-05-19T11:21:27.639Z,36.54688
2023-05-19T11:26:41.360Z,37.70703
2023-05-19T11:31:28.790Z,37.29785
2023-05-19T11:36:31.315Z,35.75488
2023-05-19T11:41:28.322Z,36.31152
2023-05-19T11:46:29.725Z,36.39453
2023-05-19T11:51:28.848Z,37.28613
2023-05-19T11:56:27.499Z,35.99414
2023-05-19T12:01:27.703Z,38.37207
2023-05-19T12:06:27.338Z,37.94043
2023-05-19T12:11:29.353Z,38.0625
2023-05-19T12:16:27.926Z,38.00488
2023-05-19T12:21:33.896Z,37.06934
2023-05-19T12:26:27.589Z,37.0166
2023-05-19T12:31:27.421Z,36.6748
2023-05-19T12:36:28.972Z,36.0293
2023-05-19T12:41:27.974Z,37.39844
2023-05-19T12:46:27.302Z,37.31152
2023-05-19T12:51:28.499Z,36.16895
2023-05-19T12:56:29.395Z,35.7959
2023-05-19T13:01:28.735Z,35.8877
2023-05-19T13:06:27.322Z,36.79688
2023-05-19T13:11:27.533Z,35.93262
2023-05-19T13:16:28.996Z,34.42578
2023-05-19T13:21:27.306Z,35.24121
2023-05-19T13:26:27.485Z,34.4248
2023-05-19T13:31:27.167Z,35.25195
2023-05-19T13:36:27.668Z,35.24805
2023-05-19T13:41:30.698Z,34.52441
2023-05-19T13:46:40.946Z,35.54492
2023-05-19T13:51:27.540Z,34.68066
2023-05-19T13:56:27.299Z,34.57715
2023-05-19T14:01:27.220Z,34.71777
2023-05-19T14:06:27.993Z,34.78711
2023-05-19T14:14:08.823Z,34.58496
2023-05-19T14:19:07.491Z,35.76855
2023-05-19T14:24:07.488Z,35.65039
2023-05-19T14:29:09.056Z,35.5918
2023-05-19T14:34:07.691Z,34.98145
2023-05-19T14:39:07.599Z,35.55078
2023-05-19T14:44:08.002Z,36.39355
2023-05-19T14:49:07.783Z,35.5752
2023-05-19T14:54:07.494Z,35.70117
2023-05-19T14:59:07.748Z,34.70605
2023-05-19T15:04:10.407Z,35.44336
2023-05-19T15:09:07.984Z,35.49414
2023-05-19T15:14:10.017Z,35.68359
2023-05-19T15:19:07.707Z,35.92871
2023-05-19T15:24:07.691Z,35.66016
2023-05-19T15:29:07.618Z,35.68945
2023-05-19T15:34:07.588Z,33.78418
2023-05-19T15:39:07.583Z,33.37012
2023-05-19T15:44:08.990Z,35.94238
2023-05-19T15:49:07.545Z,35.78613
2023-05-19T15:54:07.952Z,35.33105
2023-05-19T15:59:07.655Z,35.71387
2023-05-19T16:04:07.786Z,36.30469
2023-05-19T16:09:07.526Z,36.78027
2023-05-19T16:14:07.455Z,35.44824
2023-05-19T16:19:07.461Z,36.87988
2023-05-19T16:24:07.668Z,36.75781
2023-05-19T16:29:09.921Z,36.87012
2023-05-19T16:34:08.656Z,36.36328
2023-05-19T16:39:10.827Z,36.99707
2023-05-19T16:44:09.773Z,37.22266
2023-05-19T16:49:18.033Z,37.09766
2023-05-19T16:54:12.663Z,37.01953
2023-05-19T16:59:07.580Z,37.17578
2023-05-19T17:04:13.752Z,37.74023
2023-05-19T17:09:07.646Z,37.49609
2023-05-19T17:14:08.173Z,37.91895
2023-05-19T17:19:07.667Z,38.58301
2023-05-19T17:24:07.529Z,39.0498
2023-05-19T17:29:07.537Z,39.21582
2023-05-19T17:34:07.530Z,39.80371
2023-05-19T17:39:10.404Z,40.0293
2023-05-19T17:44:13.414Z,40.7959
2023-05-19T17:49:07.606Z,41.11914
2023-05-19T17:54:07.922Z,41.4375
2023-05-19T17:59:07.666Z,41.5127
2023-05-19T18:04:08.170Z,42.06445
2023-05-19T18:09:08.959Z,42.54688
2023-05-19T18:14:07.427Z,43.04688
2023-05-19T18:19:07.835Z,43.14551
2023-05-19T18:24:07.441Z,43.7168
2023-05-19T18:29:07.450Z,43.82324
2023-05-19T18:34:07.880Z,43.80566
2023-05-19T18:39:08.596Z,44.07129
2023-05-19T18:44:10.368Z,43.79883
2023-05-19T18:49:09.190Z,44.62598
2023-05-19T18:54:07.743Z,44.40234
2023-05-19T18:59:19.072Z,43.59277
2023-05-19T19:04:07.561Z,44.47461
2023-05-19T19:09:10.059Z,44.53516
2023-05-19T19:14:07.506Z,45.16211
2023-05-19T19:19:16.347Z,44.93359
2023-05-19T19:24:07.822Z,44.81055
2023-05-19T19:29:07.504Z,45.51758
2023-05-19T19:34:09.174Z,45.9541
2023-05-19T19:39:10.408Z,46.22754
2023-05-19T19:44:07.518Z,46.31738
2023-05-19T19:49:07.933Z,46.88867
2023-05-19T19:54:07.365Z,46.87012
2023-05-19T19:59:07.668Z,47.46387
2023-05-19T20:04:15.854Z,47.80273
2023-05-19T20:09:07.622Z,48.11621
2023-05-19T20:14:07.600Z,48.31445
2023-05-19T20:19:14.804Z,48.76172
2023-05-19T20:24:07.779Z,49.42773
2023-05-19T20:29:09.631Z,49.41797
2023-05-19T20:34:08.114Z,49.38672
2023-05-19T20:39:09.900Z,49.44922
2023-05-19T20:44:08.441Z,49.78613
2023-05-19T20:49:07.490Z,50.21191
2023-05-19T20:54:09.829Z,49.97168
2023-05-19T20:59:07.561Z,50.4082
2023-05-19T21:04:08.255Z,50.2041
2023-05-19T21:09:18.839Z,50.61621
2023-05-19T21:14:10.544Z,50.53809
2023-05-19T21:19:07.534Z,51.05566
2023-05-19T21:24:09.304Z,51.13086
2023-05-19T21:29:07.719Z,51.85449
2023-05-19T21:34:08.862Z,52.12207
2023-05-19T21:39:07.823Z,52.14844
2023-05-19T21:44:07.837Z,52.30762
2023-05-19T21:49:08.633Z,52.36035
2023-05-19T21:54:07.343Z,52.80469
2023-05-19T21:59:07.644Z,52.85254
2023-05-19T22:04:07.583Z,52.97559
2023-05-19T22:09:07.362Z,52.94336
2023-05-19T22:14:07.393Z,53.26172
2023-05-19T22:19:07.587Z,53.55859
2023-05-19T22:24:08.509Z,53.75781
2023-05-19T22:29:07.517Z,53.57031
2023-05-19T22:34:12.439Z,54.35742
2023-05-19T22:39:07.374Z,54.33203
2023-05-19T22:44:09.080Z,54.66016
2023-05-19T22:49:07.523Z,54.73145
2023-05-19T22:54:07.693Z,55.03711
2023-05-19T22:59:07.306Z,55.49414
2023-05-19T23:04:07.453Z,55.15918
2023-05-19T23:09:08.156Z,55.28809
2023-05-19T23:14:07.577Z,55.69629
2023-05-19T23:19:07.684Z,55.55566
2023-05-19T23:24:08.689Z,56.37598
2023-05-19T23:29:07.426Z,56.2373
2023-05-19T23:34:07.520Z,56.31543
2023-05-19T23:39:07.841Z,56.33008
2023-05-19T23:44:10.053Z,56.63379
2023-05-19T23:49:08.609Z,56.92383
2023-05-19T23:54:10.282Z,57.2832
2023-05-19T23:59:10.142Z,56.92285
